createdAt,value
2018-06-02T00:00:37.659Z,96.16
2018-06-02T00:03:05.185Z,96.23
2018-06-02T00:05:32.712Z,96.05
2018-06-02T00:08:00.711Z,96.12
2018-06-02T00:10:28.220Z,96.03
2018-06-02T00:12:55.730Z,96.04
2018-06-02T00:15:23.264Z,95.90
2018-06-02T00:17:50.773Z,95.96
2018-06-02T00:20:18.325Z,95.83
2018-06-02T00:22:45.849Z,95.58
2018-06-02T00:25:13.366Z,95.54
2018-06-02T00:27:40.898Z,95.78
2018-06-02T00:30:08.406Z,95.76
2018-06-02T00:32:35.943Z,95.87
2018-06-02T00:35:03.474Z,95.85
2018-06-02T00:37:30.992Z,95.64
2018-06-02T00:39:59.047Z,95.70
2018-06-02T00:42:26.562Z,95.73
2018-06-02T00:44:54.090Z,95.93
2018-06-02T00:47:21.623Z,95.89
2018-06-02T00:49:49.150Z,95.77
2018-06-02T00:52:16.650Z,95.68
2018-06-02T00:54:56.470Z,96.00
2018-06-02T00:57:23.974Z,95.99
2018-06-02T00:59:51.492Z,96.25
2018-06-02T01:02:19.027Z,96.15
2018-06-02T01:04:46.564Z,96.10
2018-06-02T01:07:14.079Z,96.07
2018-06-02T01:09:41.613Z,96.30
2018-06-02T01:12:09.126Z,96.22
2018-06-02T01:14:36.668Z,96.29
2018-06-02T01:17:04.187Z,96.25
2018-06-02T01:19:31.714Z,96.26
2018-06-02T01:21:59.237Z,96.20
2018-06-02T01:24:26.746Z,96.43
2018-06-02T01:26:55.235Z,96.33
2018-06-02T01:29:22.738Z,96.44
2018-06-02T01:31:50.486Z,96.40
2018-06-02T01:34:17.994Z,96.11
2018-06-02T01:36:45.512Z,96.24
2018-06-02T01:39:13.047Z,95.97
2018-06-02T01:41:40.764Z,96.17
2018-06-02T01:44:08.455Z,96.53
2018-06-02T01:46:35.958Z,96.53
2018-06-02T01:49:03.481Z,96.25
2018-06-02T01:51:31.015Z,96.28
2018-06-02T01:53:58.526Z,96.19
2018-06-02T01:56:26.043Z,96.11
2018-06-02T01:58:53.584Z,96.55
2018-06-02T02:01:21.258Z,96.36
2018-06-02T02:03:48.771Z,96.28
2018-06-02T02:06:16.279Z,96.49
2018-06-02T02:08:44.182Z,96.67
2018-06-02T02:11:12.877Z,96.55
2018-06-02T02:13:40.400Z,96.71
2018-06-02T02:16:07.948Z,96.55
2018-06-02T02:18:35.455Z,96.78
2018-06-02T02:21:03.094Z,96.83
2018-06-02T02:23:30.607Z,96.88
2018-06-02T02:25:58.124Z,96.65
2018-06-02T02:28:25.670Z,96.80
2018-06-02T02:30:53.174Z,96.76
2018-06-02T02:33:20.680Z,96.61
2018-06-02T02:35:48.215Z,96.58
2018-06-02T02:38:15.753Z,96.48
2018-06-02T02:40:43.266Z,96.44
2018-06-02T02:43:10.790Z,96.45
2018-06-02T02:45:38.298Z,96.60
2018-06-02T02:48:05.974Z,96.64
2018-06-02T02:50:33.496Z,96.39
2018-06-02T02:53:01.003Z,96.56
2018-06-02T02:55:28.791Z,96.36
2018-06-02T02:57:56.303Z,96.44
2018-06-02T03:00:23.842Z,96.53
2018-06-02T03:02:51.375Z,96.70
2018-06-02T03:05:18.895Z,96.48
2018-06-02T03:07:46.431Z,96.81
2018-06-02T03:10:13.946Z,96.67
2018-06-02T03:12:41.481Z,96.81
2018-06-02T03:15:08.999Z,96.86
2018-06-02T03:17:36.538Z,96.75
2018-06-02T03:20:04.154Z,96.59
2018-06-02T03:22:31.643Z,96.40
2018-06-02T03:24:59.153Z,96.40
2018-06-02T03:27:27.599Z,96.59
2018-06-02T03:29:55.113Z,96.32
2018-06-02T03:32:22.632Z,96.28
2018-06-02T03:34:50.182Z,96.15
2018-06-02T03:37:17.697Z,96.14
2018-06-02T03:39:45.211Z,96.19
2018-06-02T03:42:12.742Z,96.31
2018-06-02T03:44:40.242Z,96.35
2018-06-02T03:47:07.775Z,96.38
2018-06-02T03:49:35.273Z,96.57
2018-06-02T03:52:02.811Z,96.55
2018-06-02T03:54:30.314Z,96.68
2018-06-02T03:56:57.846Z,96.67
2018-06-02T03:59:25.403Z,96.74
2018-06-02T04:01:52.932Z,96.58
2018-06-02T04:04:20.462Z,96.68
2018-06-02T04:06:48.422Z,96.61
2018-06-02T04:09:15.939Z,96.79
2018-06-02T04:11:43.460Z,96.78
2018-06-02T04:14:10.990Z,96.83
2018-06-02T04:16:38.494Z,96.88
2018-06-02T04:19:06.035Z,96.87
2018-06-02T04:21:33.546Z,96.69
2018-06-02T04:24:01.540Z,96.69
2018-06-02T04:26:29.061Z,96.98
2018-06-02T04:28:56.588Z,97.09
2018-06-02T04:31:24.120Z,97.11
2018-06-02T04:33:51.626Z,97.13
2018-06-02T04:36:19.154Z,97.38
2018-06-02T04:38:46.666Z,97.45
2018-06-02T04:41:14.192Z,97.51
2018-06-02T04:43:41.791Z,97.51
2018-06-02T04:46:09.321Z,97.55
2018-06-02T04:48:36.970Z,97.70
2018-06-02T04:51:04.506Z,97.62
2018-06-02T04:53:32.075Z,97.58
2018-06-02T04:55:59.583Z,97.53
2018-06-02T04:58:27.117Z,97.45
2018-06-02T05:00:54.646Z,97.63
2018-06-02T05:03:22.194Z,97.69
2018-06-02T05:05:49.733Z,97.81
2018-06-02T05:08:17.262Z,98.17
2018-06-02T05:10:44.775Z,98.20
2018-06-02T05:13:12.323Z,98.20
2018-06-02T05:15:39.833Z,98.35
2018-06-02T05:18:07.366Z,98.23
2018-06-02T05:20:34.894Z,98.21
2018-06-02T05:23:02.402Z,98.14
2018-06-02T05:25:30.053Z,98.10
2018-06-02T05:27:57.563Z,98.39
2018-06-02T05:30:25.087Z,98.57
2018-06-02T05:32:52.619Z,98.67
2018-06-02T05:35:20.134Z,98.68
2018-06-02T05:37:48.134Z,98.58
2018-06-02T05:40:15.646Z,98.70
2018-06-02T05:42:43.157Z,98.66
2018-06-02T05:45:10.716Z,98.61
2018-06-02T05:47:38.252Z,98.67
2018-06-02T05:50:05.772Z,98.67
2018-06-02T05:52:33.306Z,98.80
2018-06-02T05:55:00.813Z,98.92
2018-06-02T05:57:28.354Z,99.01
2018-06-02T05:59:55.936Z,99.06
2018-06-02T06:02:23.442Z,98.95
2018-06-02T06:04:50.979Z,99.04
2018-06-02T06:07:18.496Z,99.12
2018-06-02T06:09:46.466Z,99.17
2018-06-02T06:12:13.979Z,99.30
2018-06-02T06:14:41.491Z,99.27
2018-06-02T06:17:09.027Z,99.29
2018-06-02T06:19:36.631Z,99.31
2018-06-02T06:22:04.121Z,99.34
2018-06-02T06:24:31.626Z,99.40
2018-06-02T06:26:59.346Z,99.34
2018-06-02T06:29:26.808Z,99.33
2018-06-02T06:31:54.310Z,99.15
2018-06-02T06:34:22.005Z,99.13
2018-06-02T06:36:49.518Z,99.21
2018-06-02T06:39:17.050Z,99.12
2018-06-02T06:41:44.603Z,99.27
2018-06-02T06:44:12.116Z,99.29
2018-06-02T06:46:39.618Z,99.23
2018-06-02T06:49:07.334Z,99.28
2018-06-02T06:51:34.847Z,99.32
2018-06-02T06:54:02.355Z,99.09
2018-06-02T06:56:29.901Z,98.86
2018-06-02T06:58:57.449Z,98.87
2018-06-02T07:01:24.986Z,99.08
2018-06-02T07:03:52.523Z,99.22
2018-06-02T07:06:20.056Z,99.20
2018-06-02T07:08:47.592Z,99.22
2018-06-02T07:11:15.135Z,99.14
2018-06-02T07:13:42.646Z,99.03
2018-06-02T07:16:10.207Z,99.01
2018-06-02T07:18:37.719Z,99.08
2018-06-02T07:21:05.241Z,98.95
2018-06-02T07:23:32.811Z,98.98
2018-06-02T07:26:00.319Z,99.04
2018-06-02T07:28:27.896Z,98.85
2018-06-02T07:30:55.779Z,98.70
2018-06-02T07:33:24.227Z,98.54
2018-06-02T07:35:51.734Z,98.87
2018-06-02T07:38:19.261Z,98.81
2018-06-02T07:40:46.766Z,98.88
2018-06-02T07:43:14.330Z,98.84
2018-06-02T07:45:41.848Z,98.86
2018-06-02T07:48:09.363Z,98.89
2018-06-02T07:50:36.890Z,98.79
2018-06-02T07:53:04.423Z,98.77
2018-06-02T07:55:31.959Z,98.73
2018-06-02T07:57:59.474Z,98.93
2018-06-02T08:00:27.020Z,98.92
2018-06-02T08:02:54.548Z,98.96
2018-06-02T08:05:22.084Z,98.77
2018-06-02T08:07:49.596Z,98.65
2018-06-02T08:10:17.258Z,98.73
2018-06-02T08:12:44.774Z,98.74
2018-06-02T08:15:12.299Z,98.69
2018-06-02T08:17:39.966Z,98.55
2018-06-02T08:20:07.483Z,98.65
2018-06-02T08:22:34.993Z,98.80
2018-06-02T08:25:02.526Z,98.55
2018-06-02T08:27:30.071Z,98.29
2018-06-02T08:29:57.591Z,98.11
2018-06-02T08:32:25.086Z,97.78
2018-06-02T08:34:52.800Z,97.81
2018-06-02T08:37:20.311Z,97.86
2018-06-02T08:39:47.824Z,97.75
2018-06-02T08:42:15.354Z,97.59
2018-06-02T08:44:42.961Z,97.88
2018-06-02T08:47:10.488Z,97.55
2018-06-02T08:49:37.990Z,97.67
2018-06-02T08:52:05.895Z,97.56
2018-06-02T08:54:33.404Z,97.65
2018-06-02T08:57:00.922Z,97.53
2018-06-02T08:59:28.455Z,97.60
2018-06-02T09:01:55.962Z,96.83
2018-06-02T09:04:23.511Z,96.95
2018-06-02T09:06:51.024Z,96.65
2018-06-02T09:09:18.536Z,97.06
2018-06-02T09:11:46.067Z,96.91
2018-06-02T09:14:13.566Z,96.72
2018-06-02T09:16:41.133Z,97.29
2018-06-02T09:19:08.639Z,97.07
2018-06-02T09:21:36.138Z,96.76
2018-06-02T09:24:03.668Z,96.39
2018-06-02T09:26:31.176Z,96.53
2018-06-02T09:28:58.703Z,96.63
2018-06-02T09:31:26.223Z,96.10
2018-06-02T09:33:53.750Z,96.05
2018-06-02T09:36:21.255Z,96.10
2018-06-02T09:38:48.980Z,95.84
2018-06-02T09:41:16.483Z,96.00
2018-06-02T09:43:43.996Z,96.10
2018-06-02T09:46:11.521Z,96.24
2018-06-02T09:48:39.042Z,96.54
2018-06-02T09:51:06.586Z,96.61
2018-06-02T09:53:34.115Z,96.84
2018-06-02T09:56:01.620Z,96.27
2018-06-02T09:58:29.146Z,96.11
2018-06-02T10:00:56.651Z,96.25
2018-06-02T10:03:24.307Z,96.37
2018-06-02T10:05:51.818Z,96.22
2018-06-02T10:08:19.331Z,95.93
2018-06-02T10:10:46.867Z,95.82
2018-06-02T10:13:14.382Z,95.19
2018-06-02T10:15:42.229Z,95.16
2018-06-02T10:18:09.729Z,94.90
2018-06-02T10:20:37.244Z,94.58
2018-06-02T10:23:04.977Z,94.85
2018-06-02T10:25:32.485Z,95.01
2018-06-02T10:28:00.001Z,94.32
2018-06-02T10:30:27.582Z,94.39
2018-06-02T10:32:55.096Z,94.30
2018-06-02T10:35:22.603Z,93.95
2018-06-02T10:37:50.174Z,92.64
2018-06-02T10:40:17.687Z,93.77
2018-06-02T10:42:45.188Z,93.64
2018-06-02T10:45:13.142Z,93.30
2018-06-02T10:47:40.641Z,93.36
2018-06-02T10:50:08.141Z,93.91
2018-06-02T10:52:35.662Z,91.38
2018-06-02T10:55:03.162Z,91.78
2018-06-02T10:57:31.747Z,92.01
2018-06-02T10:59:59.252Z,91.58
2018-06-02T11:02:26.746Z,91.60
2018-06-02T11:04:54.278Z,91.06
2018-06-02T11:07:21.797Z,90.76
2018-06-02T11:09:49.811Z,91.53
2018-06-02T11:12:17.354Z,90.91
2018-06-02T11:14:44.839Z,90.90
2018-06-02T11:17:12.491Z,91.20
2018-06-02T11:19:39.986Z,91.12
2018-06-02T11:22:07.497Z,91.40
2018-06-02T11:24:35.135Z,90.34
2018-06-02T11:27:02.638Z,90.53
2018-06-02T11:29:30.150Z,89.94
2018-06-02T11:31:57.673Z,89.46
2018-06-02T11:34:25.195Z,87.88
2018-06-02T11:36:53.104Z,88.01
2018-06-02T11:39:20.612Z,86.94
2018-06-02T11:41:48.118Z,87.41
2018-06-02T11:44:15.652Z,88.17
2018-06-02T11:46:43.210Z,87.64
2018-06-02T11:49:10.706Z,85.66
2018-06-02T11:51:38.211Z,86.52
2018-06-02T11:54:05.911Z,86.40
2018-06-02T11:56:33.421Z,84.76
2018-06-02T11:59:00.934Z,83.41
2018-06-02T12:01:28.449Z,83.71
2018-06-02T12:03:56.107Z,83.18
2018-06-02T12:06:23.609Z,82.21
2018-06-02T12:08:51.120Z,80.70
2018-06-02T12:11:18.679Z,82.28
2018-06-02T12:13:46.200Z,82.62
2018-06-02T12:16:13.697Z,82.40
2018-06-02T12:18:41.223Z,84.59
2018-06-02T12:21:08.733Z,82.27
2018-06-02T12:23:36.312Z,82.62
2018-06-02T12:26:03.806Z,82.06
2018-06-02T12:28:31.305Z,83.10
2018-06-02T12:30:59.007Z,81.45
2018-06-02T12:33:26.515Z,81.07
2018-06-02T12:35:54.018Z,80.40
2018-06-02T12:38:21.926Z,81.20
2018-06-02T12:40:49.431Z,81.31
2018-06-02T12:43:16.941Z,80.83
2018-06-02T12:45:44.621Z,80.42
2018-06-02T12:48:12.131Z,77.04
2018-06-02T12:50:39.662Z,82.45
2018-06-02T12:53:07.177Z,81.78
2018-06-02T12:55:34.693Z,81.31
2018-06-02T12:58:02.185Z,79.79
2018-06-02T13:00:29.711Z,80.22
2018-06-02T13:02:57.247Z,79.43
2018-06-02T13:05:24.842Z,78.96
2018-06-02T13:07:52.384Z,77.10
2018-06-02T13:10:19.903Z,80.66
2018-06-02T13:12:47.537Z,80.17
2018-06-02T13:15:15.033Z,79.57
2018-06-02T13:17:42.547Z,80.46
2018-06-02T13:20:10.261Z,79.32
2018-06-02T13:22:37.774Z,77.01
2018-06-02T13:25:05.270Z,75.52
2018-06-02T13:27:32.834Z,75.33
2018-06-02T13:30:00.335Z,76.80
2018-06-02T13:32:27.831Z,78.35
2018-06-02T13:34:55.354Z,75.76
2018-06-02T13:37:22.854Z,75.18
2018-06-02T13:39:50.374Z,75.08
2018-06-02T13:42:18.066Z,74.81
2018-06-02T13:44:45.566Z,77.49
2018-06-02T13:47:13.067Z,76.48
2018-06-02T13:49:40.595Z,77.50
2018-06-02T13:52:08.113Z,75.31
2018-06-02T13:54:35.614Z,76.74
2018-06-02T13:57:03.132Z,75.98
2018-06-02T13:59:30.626Z,73.68
2018-06-02T14:01:58.137Z,74.80
2018-06-02T14:04:25.624Z,73.56
2018-06-02T14:06:53.170Z,75.32
2018-06-02T14:09:20.677Z,75.93
2018-06-02T14:11:48.184Z,76.95
2018-06-02T14:14:15.719Z,73.79
2018-06-02T14:16:43.228Z,74.93
2018-06-02T14:19:10.741Z,74.83
2018-06-02T14:21:38.276Z,72.67
2018-06-02T14:24:05.775Z,73.30
2018-06-02T14:26:33.293Z,74.86
2018-06-02T14:29:00.848Z,76.76
2018-06-02T14:31:28.349Z,77.73
2018-06-02T14:33:55.846Z,76.94
2018-06-02T14:36:23.384Z,76.20
2018-06-02T14:38:50.885Z,76.64
2018-06-02T14:41:18.541Z,74.80
2018-06-02T14:43:46.042Z,78.04
2018-06-02T14:46:13.546Z,76.34
2018-06-02T14:48:41.061Z,76.14
2018-06-02T14:51:08.852Z,75.79
2018-06-02T14:53:36.359Z,76.51
2018-06-02T14:56:03.862Z,73.81
2018-06-02T14:58:31.458Z,75.92
2018-06-02T15:00:58.963Z,74.90
2018-06-02T15:03:26.490Z,73.71
2018-06-02T15:05:53.982Z,74.45
2018-06-02T15:08:21.496Z,72.21
2018-06-02T15:10:49.030Z,73.37
2018-06-02T15:13:16.558Z,75.59
2018-06-02T15:15:44.063Z,71.71
2018-06-02T15:18:11.730Z,72.96
2018-06-02T15:20:39.225Z,72.45
2018-06-02T15:23:06.718Z,74.61
2018-06-02T15:25:34.229Z,74.92
2018-06-02T15:28:02.230Z,74.81
2018-06-02T15:30:29.730Z,74.89
2018-06-02T15:32:57.225Z,77.85
2018-06-02T15:35:25.274Z,77.48
2018-06-02T15:37:52.785Z,77.04
2018-06-02T15:40:20.285Z,79.03
2018-06-02T15:42:47.805Z,78.32
2018-06-02T15:45:15.326Z,76.66
2018-06-02T15:47:43.023Z,78.72
2018-06-02T15:50:10.679Z,78.80
2018-06-02T15:52:38.182Z,76.95
2018-06-02T15:55:05.734Z,78.99
2018-06-02T15:57:33.250Z,75.59
2018-06-02T16:00:00.749Z,76.99
2018-06-02T16:02:28.271Z,76.66
2018-06-02T16:04:55.786Z,74.23
2018-06-02T16:07:23.314Z,72.69
2018-06-02T16:09:50.839Z,70.49
2018-06-02T16:12:18.342Z,70.85
2018-06-02T16:14:45.865Z,75.35
2018-06-02T16:17:13.597Z,74.69
2018-06-02T16:19:41.108Z,74.96
2018-06-02T16:22:08.612Z,74.38
2018-06-02T16:24:36.135Z,76.04
2018-06-02T16:27:03.649Z,73.25
2018-06-02T16:29:31.147Z,74.17
2018-06-02T16:31:58.669Z,75.79
2018-06-02T16:34:26.170Z,74.08
2018-06-02T16:36:53.697Z,74.91
2018-06-02T16:39:21.194Z,73.22
2018-06-02T16:41:48.685Z,72.35
2018-06-02T16:44:16.206Z,73.07
2018-06-02T16:46:43.715Z,73.05
2018-06-02T16:49:11.347Z,72.45
2018-06-02T16:51:38.837Z,71.21
2018-06-02T16:54:06.334Z,71.16
2018-06-02T16:56:33.849Z,70.92
2018-06-02T16:59:01.359Z,72.19
2018-06-02T17:01:28.877Z,70.91
2018-06-02T17:03:56.382Z,73.05
2018-06-02T17:06:24.351Z,72.92
2018-06-02T17:08:51.857Z,73.55
2018-06-02T17:11:19.354Z,73.14
2018-06-02T17:13:46.874Z,74.54
2018-06-02T17:16:14.385Z,74.82
2018-06-02T17:18:41.906Z,75.21
2018-06-02T17:21:09.411Z,74.96
2018-06-02T17:23:36.941Z,76.09
2018-06-02T17:26:04.441Z,75.73
2018-06-02T17:28:32.097Z,75.44
2018-06-02T17:30:59.598Z,75.42
2018-06-02T17:33:27.100Z,75.14
2018-06-02T17:35:54.630Z,74.58
2018-06-02T17:38:22.126Z,74.77
2018-06-02T17:40:50.190Z,73.03
2018-06-02T17:43:17.761Z,72.20
2018-06-02T17:45:45.270Z,75.25
2018-06-02T17:48:12.787Z,72.46
2018-06-02T17:50:40.290Z,74.08
2018-06-02T17:53:07.940Z,74.88
2018-06-02T17:55:35.438Z,74.71
2018-06-02T17:58:03.000Z,75.04
2018-06-02T18:00:30.498Z,74.73
2018-06-02T18:02:58.003Z,74.51
2018-06-02T18:05:25.571Z,75.64
2018-06-02T18:07:53.077Z,76.37
2018-06-02T18:10:20.587Z,76.68
2018-06-02T18:12:48.142Z,77.35
2018-06-02T18:15:15.637Z,77.25
2018-06-02T18:17:43.142Z,77.12
2018-06-02T18:20:11.031Z,77.73
2018-06-02T18:22:38.533Z,77.97
2018-06-02T18:25:06.039Z,78.57
2018-06-02T18:27:33.563Z,78.61
2018-06-02T18:30:01.102Z,77.41
2018-06-02T18:32:28.607Z,78.16
2018-06-02T18:34:56.474Z,77.82
2018-06-02T18:37:23.978Z,77.57
2018-06-02T18:39:51.482Z,77.37
2018-06-02T18:42:19.126Z,76.90
2018-06-02T18:44:46.654Z,78.05
2018-06-02T18:47:14.166Z,78.46
2018-06-02T18:49:41.813Z,78.33
2018-06-02T18:52:09.317Z,79.00
2018-06-02T18:54:36.809Z,79.52
2018-06-02T18:57:04.326Z,79.46
2018-06-02T18:59:32.253Z,80.31
2018-06-02T19:01:59.754Z,80.71
2018-06-02T19:04:27.254Z,80.62
2018-06-02T19:06:54.802Z,81.58
2018-06-02T19:09:22.315Z,81.80
2018-06-02T19:11:49.826Z,82.07
2018-06-02T19:14:17.853Z,82.46
2018-06-02T19:16:45.354Z,82.79
2018-06-02T19:19:12.862Z,83.33
2018-06-02T19:21:40.380Z,83.05
2018-06-02T19:24:07.902Z,82.79
2018-06-02T19:26:35.466Z,83.42
2018-06-02T19:29:02.966Z,83.45
2018-06-02T19:31:30.470Z,83.51
2018-06-02T19:33:58.010Z,83.65
2018-06-02T19:36:25.522Z,83.51
2018-06-02T19:38:53.033Z,83.79
2018-06-02T19:41:20.559Z,83.94
2018-06-02T19:43:48.063Z,84.00
2018-06-02T19:46:15.591Z,83.82
2018-06-02T19:48:43.094Z,84.24
2018-06-02T19:51:10.615Z,84.59
2018-06-02T19:53:38.320Z,84.91
2018-06-02T19:56:05.830Z,85.29
2018-06-02T19:58:33.398Z,85.36
2018-06-02T20:01:00.900Z,85.53
2018-06-02T20:03:28.402Z,85.91
2018-06-02T20:05:55.961Z,86.24
2018-06-02T20:08:23.458Z,86.53
2018-06-02T20:10:50.978Z,86.69
2018-06-02T20:13:18.899Z,87.16
2018-06-02T20:16:19.577Z,88.03
2018-06-02T20:18:48.078Z,88.43
2018-06-02T20:21:16.577Z,88.92
2018-06-02T20:23:45.066Z,89.28
2018-06-02T20:26:13.567Z,88.96
2018-06-02T20:28:42.077Z,88.04
2018-06-02T20:31:11.025Z,88.14
2018-06-02T20:33:39.548Z,88.10
2018-06-02T20:36:08.062Z,87.47
2018-06-02T20:38:36.614Z,86.22
2018-06-02T20:41:05.110Z,85.99
2018-06-02T20:43:33.675Z,85.55
2018-06-02T20:46:02.405Z,86.69
2018-06-02T20:48:30.913Z,87.50
2018-06-02T20:50:59.397Z,88.29
2018-06-02T20:53:28.342Z,88.41
2018-06-02T20:55:57.134Z,88.77
2018-06-02T20:58:25.670Z,88.76
2018-06-02T21:00:54.162Z,88.85
2018-06-02T21:03:22.771Z,88.97
2018-06-02T21:05:51.269Z,89.14
2018-06-02T21:08:19.761Z,89.56
2018-06-02T21:10:48.265Z,90.00
2018-06-02T21:13:16.744Z,90.26
2018-06-02T21:15:45.490Z,89.63
2018-06-02T21:18:13.949Z,89.87
2018-06-02T21:20:42.444Z,90.20
2018-06-02T21:23:11.171Z,90.65
2018-06-02T21:25:39.667Z,90.28
2018-06-02T21:28:08.287Z,90.28
2018-06-02T21:30:36.898Z,90.12
2018-06-02T21:33:05.420Z,90.08
2018-06-02T21:35:34.022Z,90.15
2018-06-02T21:38:02.533Z,90.40
2018-06-02T21:40:31.246Z,90.45
2018-06-02T21:42:59.735Z,90.52
2018-06-02T21:45:28.241Z,90.15
2018-06-02T21:47:57.139Z,90.36
2018-06-02T21:50:25.710Z,91.17
2018-06-02T21:52:54.194Z,92.10
2018-06-02T21:55:23.055Z,92.63
2018-06-02T21:57:51.534Z,92.49
2018-06-02T22:00:20.065Z,92.79
2018-06-02T22:02:48.549Z,92.85
2018-06-02T22:05:17.027Z,93.81
2018-06-02T22:07:45.582Z,94.21
2018-06-02T22:10:14.075Z,93.96
2018-06-02T22:12:43.114Z,94.01
2018-06-02T22:15:12.006Z,93.91
2018-06-02T22:17:40.480Z,93.82
2018-06-02T22:20:08.977Z,93.68
2018-06-02T22:22:37.497Z,93.85
2018-06-02T22:25:05.998Z,93.49
2018-06-02T22:27:34.460Z,93.58
2018-06-02T22:30:02.993Z,93.52
2018-06-02T22:32:31.510Z,93.63
2018-06-02T22:35:00.030Z,93.46
2018-06-02T22:37:28.677Z,94.03
2018-06-02T22:39:57.170Z,94.78
2018-06-02T22:42:25.674Z,94.99
2018-06-02T22:44:54.166Z,95.73
2018-06-02T22:47:22.688Z,95.17
2018-06-02T22:49:51.283Z,95.44
2018-06-02T22:52:19.787Z,95.37
2018-06-02T22:54:48.404Z,95.13
2018-06-02T22:57:17.061Z,94.99
2018-06-02T22:59:45.627Z,95.36
2018-06-02T23:02:14.551Z,95.19
2018-06-02T23:04:43.349Z,95.31
2018-06-02T23:07:12.045Z,95.32
2018-06-02T23:09:40.552Z,95.69
2018-06-02T23:12:09.026Z,95.47
2018-06-02T23:14:37.521Z,95.69
2018-06-02T23:17:06.078Z,95.67
2018-06-02T23:19:34.646Z,95.52
2018-06-02T23:22:03.317Z,95.45
2018-06-02T23:24:31.812Z,95.75
2018-06-02T23:27:00.304Z,95.58
2018-06-02T23:29:28.832Z,95.29
2018-06-02T23:31:57.367Z,95.30
2018-06-02T23:34:25.857Z,95.50
2018-06-02T23:36:54.338Z,95.36
2018-06-02T23:39:22.851Z,95.52
2018-06-02T23:41:51.339Z,95.58
2018-06-02T23:44:19.820Z,95.17
2018-06-02T23:46:48.304Z,95.69
2018-06-02T23:49:16.783Z,95.79
2018-06-02T23:51:45.269Z,95.47
2018-06-02T23:54:13.827Z,95.37
2018-06-02T23:56:42.338Z,95.48
2018-06-02T23:59:10.906Z,95.86
